sensor_id;sensor_type;location;lat;lon;timestamp;temperature;humidity
38456;DHT22;24237;50.106;20.014;2022-10-31T00:02:04;13.80;99.90
38456;DHT22;24237;50.106;20.014;2022-10-31T00:04:29;13.70;99.90
38456;DHT22;24237;50.106;20.014;2022-10-31T00:06:55;13.70;99.90
38456;DHT22;24237;50.106;20.014;2022-10-31T00:09:20;13.70;99.90
38456;DHT22;24237;50.106;20.014;2022-10-31T00:11:46;13.70;99.90
38456;DHT22;24237;50.106;20.014;2022-10-31T00:14:12;13.70;99.90
38456;DHT22;24237;50.106;20.014;2022-10-31T00:16:37;13.60;99.90
38456;DHT22;24237;50.106;20.014;2022-10-31T00:19:05;13.60;99.90
38456;DHT22;24237;50.106;20.014;2022-10-31T00:21:31;13.60;99.90
38456;DHT22;24237;50.106;20.014;2022-10-31T00:23:57;13.60;99.90
38456;DHT22;24237;50.106;20.014;2022-10-31T00:26:24;13.60;99.90
38456;DHT22;24237;50.106;20.014;2022-10-31T00:28:50;13.60;99.90
38456;DHT22;24237;50.106;20.014;2022-10-31T00:31:16;13.50;99.90
38456;DHT22;24237;50.106;20.014;2022-10-31T00:33:42;13.60;99.90
38456;DHT22;24237;50.106;20.014;2022-10-31T00:36:16;13.60;99.90
38456;DHT22;24237;50.106;20.014;2022-10-31T00:38:43;13.60;99.90
38456;DHT22;24237;50.106;20.014;2022-10-31T00:41:10;13.60;99.90
38456;DHT22;24237;50.106;20.014;2022-10-31T00:43:36;13.60;99.90
38456;DHT22;24237;50.106;20.014;2022-10-31T00:46:01;13.70;99.90
38456;DHT22;24237;50.106;20.014;2022-10-31T00:48:27;13.80;99.90
38456;DHT22;24237;50.106;20.014;2022-10-31T00:50:52;13.90;99.90
38456;DHT22;24237;50.106;20.014;2022-10-31T00:53:18;14.20;99.90
38456;DHT22;24237;50.106;20.014;2022-10-31T00:55:43;14.00;99.90
38456;DHT22;24237;50.106;20.014;2022-10-31T00:58:09;14.10;99.90
38456;DHT22;24237;50.106;20.014;2022-10-31T01:00:35;14.30;99.90
38456;DHT22;24237;50.106;20.014;2022-10-31T01:03:00;14.30;99.90
38456;DHT22;24237;50.106;20.014;2022-10-31T01:05:26;14.50;99.90
38456;DHT22;24237;50.106;20.014;2022-10-31T01:07:52;14.70;99.90
38456;DHT22;24237;50.106;20.014;2022-10-31T01:10:17;14.70;99.90
38456;DHT22;24237;50.106;20.014;2022-10-31T01:12:45;14.70;99.90
38456;DHT22;24237;50.106;20.014;2022-10-31T01:15:14;14.70;99.90
38456;DHT22;24237;50.106;20.014;2022-10-31T01:17:40;14.60;99.90
38456;DHT22;24237;50.106;20.014;2022-10-31T01:20:07;14.70;99.90
38456;DHT22;24237;50.106;20.014;2022-10-31T01:22:33;14.90;99.90
38456;DHT22;24237;50.106;20.014;2022-10-31T01:24:59;14.80;99.90
38456;DHT22;24237;50.106;20.014;2022-10-31T01:27:25;14.90;99.90
38456;DHT22;24237;50.106;20.014;2022-10-31T01:29:50;14.90;99.90
38456;DHT22;24237;50.106;20.014;2022-10-31T01:32:16;14.90;99.90
38456;DHT22;24237;50.106;20.014;2022-10-31T01:34:41;14.80;99.90
38456;DHT22;24237;50.106;20.014;2022-10-31T01:37:07;15.00;99.90
38456;DHT22;24237;50.106;20.014;2022-10-31T01:39:33;14.80;99.90
38456;DHT22;24237;50.106;20.014;2022-10-31T01:41:58;14.80;99.90
38456;DHT22;24237;50.106;20.014;2022-10-31T01:47:03;14.70;99.90
38456;DHT22;24237;50.106;20.014;2022-10-31T01:50:09;14.80;99.90
38456;DHT22;24237;50.106;20.014;2022-10-31T01:52:53;14.80;99.90
38456;DHT22;24237;50.106;20.014;2022-10-31T01:55:31;14.80;99.90
38456;DHT22;24237;50.106;20.014;2022-10-31T01:58:09;14.80;99.90
38456;DHT22;24237;50.106;20.014;2022-10-31T02:00:37;14.80;99.90
38456;DHT22;24237;50.106;20.014;2022-10-31T02:03:03;14.80;99.90
38456;DHT22;24237;50.106;20.014;2022-10-31T02:05:31;14.60;99.90
38456;DHT22;24237;50.106;20.014;2022-10-31T02:08:07;14.80;99.90
38456;DHT22;24237;50.106;20.014;2022-10-31T02:10:36;14.70;99.90
38456;DHT22;24237;50.106;20.014;2022-10-31T02:13:03;14.60;99.90
38456;DHT22;24237;50.106;20.014;2022-10-31T02:15:28;14.50;99.90
38456;DHT22;24237;50.106;20.014;2022-10-31T02:17:55;14.70;99.90
38456;DHT22;24237;50.106;20.014;2022-10-31T02:20:25;14.70;99.90
38456;DHT22;24237;50.106;20.014;2022-10-31T02:42:35;15.10;99.90
38456;DHT22;24237;50.106;20.014;2022-10-31T02:45:14;15.00;99.90
38456;DHT22;24237;50.106;20.014;2022-10-31T02:47:44;15.30;99.90
38456;DHT22;24237;50.106;20.014;2022-10-31T02:50:20;15.10;99.90
38456;DHT22;24237;50.106;20.014;2022-10-31T02:52:51;15.10;99.90
38456;DHT22;24237;50.106;20.014;2022-10-31T02:58:07;15.00;99.90
38456;DHT22;24237;50.106;20.014;2022-10-31T03:00:44;15.00;99.90
38456;DHT22;24237;50.106;20.014;2022-10-31T03:03:26;15.00;99.90
38456;DHT22;24237;50.106;20.014;2022-10-31T03:06:14;15.00;99.90
38456;DHT22;24237;50.106;20.014;2022-10-31T03:09:15;14.80;99.90
38456;DHT22;24237;50.106;20.014;2022-10-31T03:11:58;14.60;99.90
38456;DHT22;24237;50.106;20.014;2022-10-31T03:14:35;14.70;99.90
38456;DHT22;24237;50.106;20.014;2022-10-31T03:17:07;14.70;99.90
38456;DHT22;24237;50.106;20.014;2022-10-31T03:19:39;14.60;99.90
38456;DHT22;24237;50.106;20.014;2022-10-31T03:24:38;14.60;99.90
38456;DHT22;24237;50.106;20.014;2022-10-31T03:27:06;14.60;99.90
38456;DHT22;24237;50.106;20.014;2022-10-31T03:29:36;14.60;99.90
38456;DHT22;24237;50.106;20.014;2022-10-31T03:32:10;14.50;99.90
38456;DHT22;24237;50.106;20.014;2022-10-31T03:34:38;14.30;99.90
38456;DHT22;24237;50.106;20.014;2022-10-31T03:37:07;14.30;99.90
38456;DHT22;24237;50.106;20.014;2022-10-31T03:39:36;14.10;99.90
38456;DHT22;24237;50.106;20.014;2022-10-31T03:42:07;14.20;99.90
38456;DHT22;24237;50.106;20.014;2022-10-31T03:44:34;14.20;99.90
38456;DHT22;24237;50.106;20.014;2022-10-31T03:47:01;14.20;99.90
38456;DHT22;24237;50.106;20.014;2022-10-31T03:49:29;14.10;99.90
38456;DHT22;24237;50.106;20.014;2022-10-31T03:52:02;14.10;99.90
38456;DHT22;24237;50.106;20.014;2022-10-31T03:57:29;13.80;99.90
38456;DHT22;24237;50.106;20.014;2022-10-31T04:00:14;14.00;99.90
38456;DHT22;24237;50.106;20.014;2022-10-31T04:02:49;14.00;99.90
38456;DHT22;24237;50.106;20.014;2022-10-31T04:05:17;14.10;99.90
38456;DHT22;24237;50.106;20.014;2022-10-31T04:07:46;14.00;99.90
38456;DHT22;24237;50.106;20.014;2022-10-31T04:10:14;14.10;99.90
38456;DHT22;24237;50.106;20.014;2022-10-31T04:12:44;14.20;99.90
38456;DHT22;24237;50.106;20.014;2022-10-31T04:15:13;14.00;99.90
38456;DHT22;24237;50.106;20.014;2022-10-31T04:17:40;13.80;99.90
38456;DHT22;24237;50.106;20.014;2022-10-31T04:20:07;14.00;99.90
38456;DHT22;24237;50.106;20.014;2022-10-31T04:22:33;14.10;99.90
38456;DHT22;24237;50.106;20.014;2022-10-31T04:24:58;14.20;99.90
38456;DHT22;24237;50.106;20.014;2022-10-31T04:27:24;14.20;99.90
38456;DHT22;24237;50.106;20.014;2022-10-31T04:29:50;13.90;99.90
38456;DHT22;24237;50.106;20.014;2022-10-31T04:32:15;14.10;99.90
38456;DHT22;24237;50.106;20.014;2022-10-31T04:34:41;14.20;99.90
38456;DHT22;24237;50.106;20.014;2022-10-31T04:37:06;14.00;99.90
38456;DHT22;24237;50.106;20.014;2022-10-31T04:39:32;14.10;99.90
38456;DHT22;24237;50.106;20.014;2022-10-31T04:41:58;14.10;99.90
38456;DHT22;24237;50.106;20.014;2022-10-31T04:44:23;14.20;99.90
38456;DHT22;24237;50.106;20.014;2022-10-31T04:46:49;14.20;99.90
38456;DHT22;24237;50.106;20.014;2022-10-31T04:49:14;14.20;99.90
38456;DHT22;24237;50.106;20.014;2022-10-31T04:51:40;14.10;99.90
38456;DHT22;24237;50.106;20.014;2022-10-31T04:54:05;14.00;99.90
38456;DHT22;24237;50.106;20.014;2022-10-31T04:56:31;14.30;99.90
38456;DHT22;24237;50.106;20.014;2022-10-31T04:58:57;14.00;99.90
38456;DHT22;24237;50.106;20.014;2022-10-31T05:01:22;14.10;99.90
38456;DHT22;24237;50.106;20.014;2022-10-31T05:03:48;14.20;99.90
38456;DHT22;24237;50.106;20.014;2022-10-31T05:06:13;14.20;99.90
38456;DHT22;24237;50.106;20.014;2022-10-31T05:08:39;14.00;99.90
38456;DHT22;24237;50.106;20.014;2022-10-31T05:11:05;13.90;99.90
38456;DHT22;24237;50.106;20.014;2022-10-31T05:13:31;13.90;99.90
38456;DHT22;24237;50.106;20.014;2022-10-31T05:15:56;13.80;99.90
38456;DHT22;24237;50.106;20.014;2022-10-31T05:18:22;14.10;99.90
38456;DHT22;24237;50.106;20.014;2022-10-31T05:20:48;14.00;99.90
38456;DHT22;24237;50.106;20.014;2022-10-31T05:23:13;14.00;99.90
38456;DHT22;24237;50.106;20.014;2022-10-31T05:25:40;14.30;99.90
38456;DHT22;24237;50.106;20.014;2022-10-31T05:28:06;14.10;99.90
38456;DHT22;24237;50.106;20.014;2022-10-31T05:30:32;14.20;99.90
38456;DHT22;24237;50.106;20.014;2022-10-31T05:32:58;14.30;99.90
38456;DHT22;24237;50.106;20.014;2022-10-31T05:35:26;14.30;99.90
38456;DHT22;24237;50.106;20.014;2022-10-31T05:37:56;14.30;99.90
38456;DHT22;24237;50.106;20.014;2022-10-31T05:40:23;14.10;99.90
38456;DHT22;24237;50.106;20.014;2022-10-31T05:42:56;14.00;99.90
38456;DHT22;24237;50.106;20.014;2022-10-31T05:45:24;13.90;99.90
38456;DHT22;24237;50.106;20.014;2022-10-31T05:48:12;13.80;99.90
38456;DHT22;24237;50.106;20.014;2022-10-31T05:50:38;13.90;99.90
38456;DHT22;24237;50.106;20.014;2022-10-31T05:53:04;13.90;99.90
38456;DHT22;24237;50.106;20.014;2022-10-31T05:55:31;13.80;99.90
38456;DHT22;24237;50.106;20.014;2022-10-31T05:57:57;13.90;99.90
38456;DHT22;24237;50.106;20.014;2022-10-31T06:00:24;14.00;99.90
38456;DHT22;24237;50.106;20.014;2022-10-31T06:02:57;14.40;99.90
38456;DHT22;24237;50.106;20.014;2022-10-31T06:05:22;14.60;99.90
38456;DHT22;24237;50.106;20.014;2022-10-31T06:07:48;14.70;99.90
38456;DHT22;24237;50.106;20.014;2022-10-31T06:10:13;14.70;99.90
38456;DHT22;24237;50.106;20.014;2022-10-31T06:12:39;14.70;99.90
38456;DHT22;24237;50.106;20.014;2022-10-31T06:15:07;14.70;99.90
38456;DHT22;24237;50.106;20.014;2022-10-31T06:17:35;14.60;99.90
38456;DHT22;24237;50.106;20.014;2022-10-31T06:20:01;14.70;99.90
38456;DHT22;24237;50.106;20.014;2022-10-31T06:22:28;14.70;99.90
38456;DHT22;24237;50.106;20.014;2022-10-31T06:24:53;14.70;99.90
38456;DHT22;24237;50.106;20.014;2022-10-31T06:27:19;14.90;99.90
38456;DHT22;24237;50.106;20.014;2022-10-31T06:29:44;14.90;99.90
38456;DHT22;24237;50.106;20.014;2022-10-31T06:32:13;14.80;99.90
38456;DHT22;24237;50.106;20.014;2022-10-31T06:34:39;14.80;99.90
38456;DHT22;24237;50.106;20.014;2022-10-31T06:37:10;15.00;99.90
38456;DHT22;24237;50.106;20.014;2022-10-31T06:39:36;14.80;99.90
38456;DHT22;24237;50.106;20.014;2022-10-31T06:42:03;14.70;99.90
38456;DHT22;24237;50.106;20.014;2022-10-31T06:44:29;14.60;99.90
38456;DHT22;24237;50.106;20.014;2022-10-31T06:46:55;14.70;99.90
38456;DHT22;24237;50.106;20.014;2022-10-31T06:49:21;14.80;99.90
38456;DHT22;24237;50.106;20.014;2022-10-31T06:51:50;14.80;99.90
38456;DHT22;24237;50.106;20.014;2022-10-31T06:54:16;14.70;99.90
38456;DHT22;24237;50.106;20.014;2022-10-31T06:56:42;14.80;99.90
38456;DHT22;24237;50.106;20.014;2022-10-31T06:59:07;14.70;99.90
38456;DHT22;24237;50.106;20.014;2022-10-31T07:01:33;15.00;99.90
38456;DHT22;24237;50.106;20.014;2022-10-31T07:03:59;15.20;99.90
38456;DHT22;24237;50.106;20.014;2022-10-31T07:06:24;15.30;99.90
38456;DHT22;24237;50.106;20.014;2022-10-31T07:08:50;15.30;99.90
38456;DHT22;24237;50.106;20.014;2022-10-31T07:11:15;15.40;99.90
38456;DHT22;24237;50.106;20.014;2022-10-31T07:13:41;15.40;99.90
38456;DHT22;24237;50.106;20.014;2022-10-31T07:16:07;15.40;99.90
38456;DHT22;24237;50.106;20.014;2022-10-31T07:18:34;15.30;99.90
38456;DHT22;24237;50.106;20.014;2022-10-31T07:20:59;15.40;99.90
38456;DHT22;24237;50.106;20.014;2022-10-31T07:23:25;15.50;99.90
38456;DHT22;24237;50.106;20.014;2022-10-31T07:25:57;15.50;99.90
38456;DHT22;24237;50.106;20.014;2022-10-31T07:28:24;15.50;99.90
38456;DHT22;24237;50.106;20.014;2022-10-31T07:30:54;15.60;99.90
38456;DHT22;24237;50.106;20.014;2022-10-31T07:33:20;15.80;99.90
38456;DHT22;24237;50.106;20.014;2022-10-31T07:35:46;15.70;99.90
38456;DHT22;24237;50.106;20.014;2022-10-31T07:38:13;15.60;99.90
38456;DHT22;24237;50.106;20.014;2022-10-31T07:40:39;15.90;99.90
38456;DHT22;24237;50.106;20.014;2022-10-31T07:43:05;16.00;99.90
38456;DHT22;24237;50.106;20.014;2022-10-31T07:45:37;16.10;99.90
38456;DHT22;24237;50.106;20.014;2022-10-31T07:48:03;16.10;99.90
38456;DHT22;24237;50.106;20.014;2022-10-31T07:50:31;16.30;99.90
38456;DHT22;24237;50.106;20.014;2022-10-31T07:53:09;16.50;99.90
38456;DHT22;24237;50.106;20.014;2022-10-31T07:55:35;16.60;99.90
38456;DHT22;24237;50.106;20.014;2022-10-31T07:58:06;16.60;99.90
38456;DHT22;24237;50.106;20.014;2022-10-31T08:00:34;16.60;99.90
38456;DHT22;24237;50.106;20.014;2022-10-31T08:03:01;16.60;99.90
38456;DHT22;24237;50.106;20.014;2022-10-31T08:05:27;16.70;99.90
38456;DHT22;24237;50.106;20.014;2022-10-31T08:07:53;17.00;99.90
38456;DHT22;24237;50.106;20.014;2022-10-31T08:10:19;17.20;99.90
38456;DHT22;24237;50.106;20.014;2022-10-31T08:12:45;17.30;99.90
38456;DHT22;24237;50.106;20.014;2022-10-31T08:15:11;17.40;99.90
38456;DHT22;24237;50.106;20.014;2022-10-31T08:17:40;17.40;99.90
38456;DHT22;24237;50.106;20.014;2022-10-31T08:20:06;17.50;99.90
38456;DHT22;24237;50.106;20.014;2022-10-31T08:22:32;17.30;99.90
38456;DHT22;24237;50.106;20.014;2022-10-31T08:24:57;17.30;99.90
38456;DHT22;24237;50.106;20.014;2022-10-31T08:27:23;17.50;99.90
38456;DHT22;24237;50.106;20.014;2022-10-31T08:29:51;17.80;99.90
38456;DHT22;24237;50.106;20.014;2022-10-31T08:32:17;17.90;99.90
38456;DHT22;24237;50.106;20.014;2022-10-31T08:34:43;18.00;99.90
38456;DHT22;24237;50.106;20.014;2022-10-31T08:37:08;17.80;99.90
38456;DHT22;24237;50.106;20.014;2022-10-31T08:39:34;17.80;99.90
38456;DHT22;24237;50.106;20.014;2022-10-31T08:41:59;18.10;99.90
38456;DHT22;24237;50.106;20.014;2022-10-31T08:44:25;18.20;99.90
38456;DHT22;24237;50.106;20.014;2022-10-31T08:46:50;18.30;99.90
38456;DHT22;24237;50.106;20.014;2022-10-31T08:49:16;18.50;99.90
38456;DHT22;24237;50.106;20.014;2022-10-31T08:51:41;18.50;99.90
38456;DHT22;24237;50.106;20.014;2022-10-31T08:54:07;18.50;99.90
38456;DHT22;24237;50.106;20.014;2022-10-31T08:56:32;18.70;99.90
38456;DHT22;24237;50.106;20.014;2022-10-31T08:58:58;18.60;99.90
38456;DHT22;24237;50.106;20.014;2022-10-31T09:01:24;18.70;99.90
38456;DHT22;24237;50.106;20.014;2022-10-31T09:03:49;18.80;99.90
38456;DHT22;24237;50.106;20.014;2022-10-31T09:06:15;18.90;99.90
38456;DHT22;24237;50.106;20.014;2022-10-31T09:08:41;18.80;99.90
38456;DHT22;24237;50.106;20.014;2022-10-31T09:11:06;19.00;99.90
38456;DHT22;24237;50.106;20.014;2022-10-31T09:13:32;19.30;99.90
38456;DHT22;24237;50.106;20.014;2022-10-31T09:16:01;19.20;99.90
38456;DHT22;24237;50.106;20.014;2022-10-31T09:18:27;19.40;99.90
38456;DHT22;24237;50.106;20.014;2022-10-31T09:20:53;19.40;99.90
38456;DHT22;24237;50.106;20.014;2022-10-31T09:23:21;19.50;99.90
38456;DHT22;24237;50.106;20.014;2022-10-31T09:25:48;19.70;99.90
38456;DHT22;24237;50.106;20.014;2022-10-31T09:28:22;19.80;99.90
38456;DHT22;24237;50.106;20.014;2022-10-31T09:30:55;20.10;99.90
38456;DHT22;24237;50.106;20.014;2022-10-31T09:33:21;20.00;99.90
38456;DHT22;24237;50.106;20.014;2022-10-31T09:35:46;19.80;99.90
38456;DHT22;24237;50.106;20.014;2022-10-31T09:38:18;20.00;99.90
38456;DHT22;24237;50.106;20.014;2022-10-31T09:46:30;20.40;99.90
38456;DHT22;24237;50.106;20.014;2022-10-31T09:51:46;20.50;99.90
38456;DHT22;24237;50.106;20.014;2022-10-31T09:54:25;20.60;99.90
38456;DHT22;24237;50.106;20.014;2022-10-31T09:56:52;20.80;99.90
38456;DHT22;24237;50.106;20.014;2022-10-31T09:59:28;20.80;99.90
38456;DHT22;24237;50.106;20.014;2022-10-31T10:02:13;20.90;99.90
38456;DHT22;24237;50.106;20.014;2022-10-31T10:16:34;21.30;99.90
38456;DHT22;24237;50.106;20.014;2022-10-31T10:24:50;21.70;99.90
38456;DHT22;24237;50.106;20.014;2022-10-31T10:30:02;21.90;99.90
38456;DHT22;24237;50.106;20.014;2022-10-31T10:32:30;21.80;99.90
38456;DHT22;24237;50.106;20.014;2022-10-31T10:37:40;22.30;99.90
38456;DHT22;24237;50.106;20.014;2022-10-31T10:40:19;22.50;99.90
38456;DHT22;24237;50.106;20.014;2022-10-31T10:43:00;22.60;99.90
38456;DHT22;24237;50.106;20.014;2022-10-31T10:51:54;22.90;99.90
38456;DHT22;24237;50.106;20.014;2022-10-31T10:54:44;23.10;99.90
38456;DHT22;24237;50.106;20.014;2022-10-31T10:57:50;23.30;99.90
38456;DHT22;24237;50.106;20.014;2022-10-31T11:00:24;23.30;99.90
38456;DHT22;24237;50.106;20.014;2022-10-31T11:02:51;23.60;99.90
38456;DHT22;24237;50.106;20.014;2022-10-31T11:05:36;24.00;99.90
38456;DHT22;24237;50.106;20.014;2022-10-31T11:08:06;24.00;99.90
38456;DHT22;24237;50.106;20.014;2022-10-31T11:10:35;24.00;99.90
38456;DHT22;24237;50.106;20.014;2022-10-31T11:16:10;24.20;99.90
38456;DHT22;24237;50.106;20.014;2022-10-31T11:18:46;23.80;99.90
38456;DHT22;24237;50.106;20.014;2022-10-31T11:21:24;24.10;99.90
38456;DHT22;24237;50.106;20.014;2022-10-31T11:24:01;24.10;99.90
38456;DHT22;24237;50.106;20.014;2022-10-31T11:26:27;24.30;99.90
38456;DHT22;24237;50.106;20.014;2022-10-31T11:28:59;24.50;99.50
38456;DHT22;24237;50.106;20.014;2022-10-31T11:31:25;24.90;99.10
38456;DHT22;24237;50.106;20.014;2022-10-31T11:34:00;25.10;99.10
38456;DHT22;24237;50.106;20.014;2022-10-31T11:36:29;25.70;98.70
38456;DHT22;24237;50.106;20.014;2022-10-31T11:38:55;26.60;98.00
38456;DHT22;24237;50.106;20.014;2022-10-31T11:41:36;27.80;96.70
38456;DHT22;24237;50.106;20.014;2022-10-31T11:44:16;28.40;95.60
38456;DHT22;24237;50.106;20.014;2022-10-31T11:46:51;29.10;94.70
38456;DHT22;24237;50.106;20.014;2022-10-31T11:51:49;29.70;92.90
38456;DHT22;24237;50.106;20.014;2022-10-31T11:54:28;29.90;92.60
38456;DHT22;24237;50.106;20.014;2022-10-31T11:56:55;30.80;91.70
38456;DHT22;24237;50.106;20.014;2022-10-31T11:59:29;31.00;90.70
38456;DHT22;24237;50.106;20.014;2022-10-31T12:01:57;30.90;90.50
38456;DHT22;24237;50.106;20.014;2022-10-31T12:04:45;31.50;89.80
38456;DHT22;24237;50.106;20.014;2022-10-31T12:07:11;31.50;88.20
38456;DHT22;24237;50.106;20.014;2022-10-31T12:09:38;31.90;86.80
38456;DHT22;24237;50.106;20.014;2022-10-31T12:17:54;31.80;84.90
38456;DHT22;24237;50.106;20.014;2022-10-31T12:23:47;33.00;82.60
38456;DHT22;24237;50.106;20.014;2022-10-31T12:37:32;34.20;77.60
38456;DHT22;24237;50.106;20.014;2022-10-31T12:48:00;33.90;76.40
38456;DHT22;24237;50.106;20.014;2022-10-31T12:50:35;34.30;75.40
38456;DHT22;24237;50.106;20.014;2022-10-31T12:55:59;33.30;75.80
38456;DHT22;24237;50.106;20.014;2022-10-31T12:58:35;33.10;75.90
38456;DHT22;24237;50.106;20.014;2022-10-31T13:01:24;32.90;76.70
38456;DHT22;24237;50.106;20.014;2022-10-31T13:03:55;32.90;76.10
38456;DHT22;24237;50.106;20.014;2022-10-31T13:06:42;33.10;75.70
38456;DHT22;24237;50.106;20.014;2022-10-31T13:09:13;33.30;75.50
38456;DHT22;24237;50.106;20.014;2022-10-31T13:11:45;33.60;74.90
38456;DHT22;24237;50.106;20.014;2022-10-31T13:14:34;32.70;75.50
38456;DHT22;24237;50.106;20.014;2022-10-31T13:17:01;32.20;76.00
38456;DHT22;24237;50.106;20.014;2022-10-31T13:19:41;32.20;76.30
38456;DHT22;24237;50.106;20.014;2022-10-31T13:22:27;32.00;76.40
38456;DHT22;24237;50.106;20.014;2022-10-31T13:27:51;32.30;75.80
38456;DHT22;24237;50.106;20.014;2022-10-31T13:30:21;32.10;75.60
38456;DHT22;24237;50.106;20.014;2022-10-31T13:36:12;32.20;76.00
38456;DHT22;24237;50.106;20.014;2022-10-31T13:39:03;32.10;75.90
38456;DHT22;24237;50.106;20.014;2022-10-31T13:44:43;31.80;76.20
38456;DHT22;24237;50.106;20.014;2022-10-31T13:47:22;31.30;76.50
38456;DHT22;24237;50.106;20.014;2022-10-31T13:49:48;30.60;76.80
38456;DHT22;24237;50.106;20.014;2022-10-31T13:52:23;30.30;77.10
38456;DHT22;24237;50.106;20.014;2022-10-31T13:54:58;29.90;77.80
38456;DHT22;24237;50.106;20.014;2022-10-31T13:57:30;29.70;78.40
38456;DHT22;24237;50.106;20.014;2022-10-31T14:00:05;29.30;78.70
38456;DHT22;24237;50.106;20.014;2022-10-31T14:02:34;28.90;79.40
38456;DHT22;24237;50.106;20.014;2022-10-31T14:05:03;28.10;80.70
38456;DHT22;24237;50.106;20.014;2022-10-31T14:07:30;27.40;81.70
38456;DHT22;24237;50.106;20.014;2022-10-31T14:15:19;26.00;84.40
38456;DHT22;24237;50.106;20.014;2022-10-31T14:17:48;25.70;85.00
38456;DHT22;24237;50.106;20.014;2022-10-31T14:22:41;25.10;86.70
38456;DHT22;24237;50.106;20.014;2022-10-31T14:25:32;25.00;87.20
38456;DHT22;24237;50.106;20.014;2022-10-31T14:28:00;24.80;88.00
38456;DHT22;24237;50.106;20.014;2022-10-31T14:30:29;24.70;88.30
38456;DHT22;24237;50.106;20.014;2022-10-31T14:33:01;24.60;88.90
38456;DHT22;24237;50.106;20.014;2022-10-31T14:35:46;24.50;89.50
38456;DHT22;24237;50.106;20.014;2022-10-31T14:38:46;24.70;89.30
38456;DHT22;24237;50.106;20.014;2022-10-31T14:41:41;24.60;89.40
38456;DHT22;24237;50.106;20.014;2022-10-31T14:47:34;23.80;90.70
38456;DHT22;24237;50.106;20.014;2022-10-31T14:50:18;23.60;91.10
38456;DHT22;24237;50.106;20.014;2022-10-31T14:52:49;23.50;91.50
38456;DHT22;24237;50.106;20.014;2022-10-31T14:55:16;23.30;92.00
38456;DHT22;24237;50.106;20.014;2022-10-31T14:57:54;23.10;92.10
38456;DHT22;24237;50.106;20.014;2022-10-31T15:00:22;23.30;91.90
38456;DHT22;24237;50.106;20.014;2022-10-31T15:05:34;22.90;92.40
38456;DHT22;24237;50.106;20.014;2022-10-31T15:08:03;22.70;92.70
38456;DHT22;24237;50.106;20.014;2022-10-31T15:10:36;22.70;92.90
38456;DHT22;24237;50.106;20.014;2022-10-31T15:13:19;22.40;93.30
38456;DHT22;24237;50.106;20.014;2022-10-31T15:15:45;22.30;93.80
38456;DHT22;24237;50.106;20.014;2022-10-31T15:18:22;22.10;94.10
38456;DHT22;24237;50.106;20.014;2022-10-31T15:20:50;22.00;94.50
38456;DHT22;24237;50.106;20.014;2022-10-31T15:23:26;21.80;95.00
38456;DHT22;24237;50.106;20.014;2022-10-31T15:26:03;21.60;95.30
38456;DHT22;24237;50.106;20.014;2022-10-31T15:28:30;21.50;95.60
38456;DHT22;24237;50.106;20.014;2022-10-31T15:31:01;21.40;96.30
38456;DHT22;24237;50.106;20.014;2022-10-31T15:33:38;21.20;96.80
38456;DHT22;24237;50.106;20.014;2022-10-31T15:36:33;21.10;97.20
38456;DHT22;24237;50.106;20.014;2022-10-31T15:38:59;21.00;97.70
38456;DHT22;24237;50.106;20.014;2022-10-31T15:41:52;20.90;98.00
38456;DHT22;24237;50.106;20.014;2022-10-31T15:46:55;20.80;98.90
38456;DHT22;24237;50.106;20.014;2022-10-31T15:49:42;20.70;99.10
38456;DHT22;24237;50.106;20.014;2022-10-31T15:54:54;20.60;99.90
38456;DHT22;24237;50.106;20.014;2022-10-31T15:57:22;20.50;99.90
38456;DHT22;24237;50.106;20.014;2022-10-31T15:59:49;20.40;99.90
38456;DHT22;24237;50.106;20.014;2022-10-31T16:02:20;20.40;99.90
38456;DHT22;24237;50.106;20.014;2022-10-31T16:04:58;20.30;99.90
38456;DHT22;24237;50.106;20.014;2022-10-31T16:07:24;20.30;99.90
38456;DHT22;24237;50.106;20.014;2022-10-31T16:10:04;20.20;99.90
38456;DHT22;24237;50.106;20.014;2022-10-31T16:12:37;20.20;99.90
38456;DHT22;24237;50.106;20.014;2022-10-31T16:15:12;20.00;99.90
38456;DHT22;24237;50.106;20.014;2022-10-31T16:17:41;19.90;99.90
38456;DHT22;24237;50.106;20.014;2022-10-31T16:20:19;19.80;99.90
38456;DHT22;24237;50.106;20.014;2022-10-31T16:22:48;19.50;99.90
38456;DHT22;24237;50.106;20.014;2022-10-31T16:25:18;19.30;99.90
38456;DHT22;24237;50.106;20.014;2022-10-31T16:27:52;19.20;99.90
38456;DHT22;24237;50.106;20.014;2022-10-31T16:30:28;19.10;99.90
38456;DHT22;24237;50.106;20.014;2022-10-31T16:32:59;19.00;99.90
38456;DHT22;24237;50.106;20.014;2022-10-31T16:35:37;18.90;99.90
38456;DHT22;24237;50.106;20.014;2022-10-31T16:38:04;18.80;99.90
38456;DHT22;24237;50.106;20.014;2022-10-31T16:40:30;18.80;99.90
38456;DHT22;24237;50.106;20.014;2022-10-31T16:43:02;18.70;99.90
38456;DHT22;24237;50.106;20.014;2022-10-31T16:45:30;18.60;99.90
38456;DHT22;24237;50.106;20.014;2022-10-31T16:48:25;18.60;99.90
38456;DHT22;24237;50.106;20.014;2022-10-31T16:50:52;18.50;99.90
38456;DHT22;24237;50.106;20.014;2022-10-31T16:53:18;18.40;99.90
38456;DHT22;24237;50.106;20.014;2022-10-31T16:55:57;18.30;99.90
38456;DHT22;24237;50.106;20.014;2022-10-31T16:58:34;18.30;99.90
38456;DHT22;24237;50.106;20.014;2022-10-31T17:01:04;18.10;99.90
38456;DHT22;24237;50.106;20.014;2022-10-31T17:03:30;18.10;99.90
38456;DHT22;24237;50.106;20.014;2022-10-31T17:05:56;18.00;99.90
38456;DHT22;24237;50.106;20.014;2022-10-31T17:08:21;17.90;99.90
38456;DHT22;24237;50.106;20.014;2022-10-31T17:10:51;17.90;99.90
38456;DHT22;24237;50.106;20.014;2022-10-31T17:13:22;17.80;99.90
38456;DHT22;24237;50.106;20.014;2022-10-31T17:16:01;17.70;99.90
38456;DHT22;24237;50.106;20.014;2022-10-31T17:18:27;17.60;99.90
38456;DHT22;24237;50.106;20.014;2022-10-31T17:21:02;17.60;99.90
38456;DHT22;24237;50.106;20.014;2022-10-31T17:23:28;17.40;99.90
38456;DHT22;24237;50.106;20.014;2022-10-31T17:25:55;17.30;99.90
38456;DHT22;24237;50.106;20.014;2022-10-31T17:28:21;17.10;99.90
38456;DHT22;24237;50.106;20.014;2022-10-31T17:30:47;17.00;99.90
38456;DHT22;24237;50.106;20.014;2022-10-31T17:33:14;16.90;99.90
38456;DHT22;24237;50.106;20.014;2022-10-31T17:35:41;16.70;99.90
38456;DHT22;24237;50.106;20.014;2022-10-31T17:38:07;16.70;99.90
38456;DHT22;24237;50.106;20.014;2022-10-31T17:40:33;16.70;99.90
38456;DHT22;24237;50.106;20.014;2022-10-31T17:42:58;16.50;99.90
38456;DHT22;24237;50.106;20.014;2022-10-31T17:45:25;16.40;99.90
38456;DHT22;24237;50.106;20.014;2022-10-31T17:47:52;16.40;99.90